createdAt,value
2017-10-28T00:00:51.927Z,94.37
2017-10-28T00:02:45.351Z,95.22
2017-10-28T00:03:45.336Z,94.93
2017-10-28T00:05:38.692Z,95.60
2017-10-28T00:06:38.759Z,95.41
2017-10-28T00:08:32.175Z,95.79
2017-10-28T00:09:32.230Z,95.98
2017-10-28T00:11:25.494Z,96.08
2017-10-28T00:12:25.527Z,95.88
2017-10-28T00:14:19.948Z,95.98
2017-10-28T00:15:19.926Z,95.88
2017-10-28T00:17:13.312Z,96.83
2017-10-28T00:18:13.340Z,96.08
2017-10-28T00:20:06.714Z,94.74
2017-10-28T00:21:06.719Z,94.18
2017-10-28T00:23:00.059Z,93.99
2017-10-28T00:24:00.172Z,94.27
2017-10-28T00:25:53.515Z,94.46
2017-10-28T00:26:53.490Z,95.41
2017-10-28T00:28:46.945Z,95.88
2017-10-28T00:29:46.993Z,95.88
2017-10-28T00:31:40.325Z,95.88
2017-10-28T00:32:40.300Z,95.98
2017-10-28T00:34:33.674Z,96.83
2017-10-28T00:35:33.661Z,96.36
2017-10-28T00:37:27.146Z,96.36
2017-10-28T00:38:27.083Z,96.64
2017-10-28T00:40:21.451Z,95.60
2017-10-28T00:41:21.478Z,95.22
2017-10-28T00:43:15.902Z,94.27
2017-10-28T00:44:15.894Z,94.65
2017-10-28T00:46:09.227Z,95.03
2017-10-28T00:47:09.223Z,95.31
2017-10-28T00:49:03.732Z,95.50
2017-10-28T00:50:03.660Z,95.41
2017-10-28T00:51:56.971Z,94.65
2017-10-28T00:52:56.982Z,94.37
2017-10-28T00:54:50.494Z,94.37
2017-10-28T00:55:50.397Z,94.56
2017-10-28T00:57:44.787Z,94.93
2017-10-28T00:58:44.840Z,95.31
2017-10-28T01:00:38.176Z,95.41
2017-10-28T01:01:38.225Z,94.74
2017-10-28T01:03:31.624Z,94.74
2017-10-28T01:04:31.568Z,95.03
2017-10-28T01:06:25.951Z,95.12
2017-10-28T01:07:26.011Z,95.41
2017-10-28T01:09:19.363Z,95.12
2017-10-28T01:10:19.375Z,95.31
2017-10-28T01:12:12.768Z,95.69
2017-10-28T01:13:12.716Z,95.12
2017-10-28T01:15:06.146Z,95.41
2017-10-28T01:16:06.166Z,95.60
2017-10-28T01:17:59.533Z,94.56
2017-10-28T01:18:59.556Z,94.18
2017-10-28T01:20:52.964Z,93.65
2017-10-28T01:21:52.998Z,93.08
2017-10-28T01:23:46.380Z,93.18
2017-10-28T01:24:46.402Z,92.99
2017-10-28T01:26:39.697Z,94.23
2017-10-28T01:27:39.713Z,94.51
2017-10-28T01:29:34.097Z,94.98
2017-10-28T01:30:34.112Z,95.36
2017-10-28T01:32:27.497Z,96.97
2017-10-28T01:33:27.487Z,96.50
2017-10-28T01:35:20.943Z,96.97
2017-10-28T01:36:20.858Z,97.16
2017-10-28T01:38:15.252Z,96.88
2017-10-28T01:39:15.241Z,97.07
2017-10-28T01:41:08.604Z,96.97
2017-10-28T01:42:08.711Z,96.59
2017-10-28T01:44:02.136Z,95.65
2017-10-28T01:45:02.087Z,96.03
2017-10-28T01:46:55.456Z,96.12
2017-10-28T01:47:55.470Z,95.26
2017-10-28T01:49:48.827Z,95.36
2017-10-28T01:50:48.839Z,95.07
2017-10-28T01:52:42.223Z,94.23
2017-10-28T01:53:42.243Z,94.13
2017-10-28T01:55:35.674Z,94.70
2017-10-28T01:56:35.644Z,94.79
2017-10-28T01:58:29.055Z,94.42
2017-10-28T01:59:28.992Z,94.79
2017-10-28T02:01:22.418Z,95.45
2017-10-28T02:02:22.390Z,96.22
2017-10-28T02:04:15.862Z,96.12
2017-10-28T02:05:15.857Z,95.65
2017-10-28T02:07:09.254Z,94.79
2017-10-28T02:08:09.183Z,95.07
2017-10-28T02:10:02.618Z,94.23
2017-10-28T02:11:02.598Z,94.23
2017-10-28T02:12:55.973Z,93.37
2017-10-28T02:13:56.054Z,93.56
2017-10-28T02:15:49.446Z,94.23
2017-10-28T02:16:49.426Z,94.70
2017-10-28T02:18:42.861Z,94.13
2017-10-28T02:19:42.774Z,93.75
2017-10-28T02:21:36.238Z,94.70
2017-10-28T02:22:36.209Z,95.26
2017-10-28T02:24:29.493Z,96.03
2017-10-28T02:25:29.545Z,96.69
2017-10-28T02:27:22.984Z,96.50
2017-10-28T02:28:22.960Z,96.78
2017-10-28T02:30:16.352Z,96.69
2017-10-28T02:31:16.352Z,96.59
2017-10-28T02:33:09.750Z,96.69
2017-10-28T02:34:09.763Z,96.03
2017-10-28T02:36:03.153Z,95.84
2017-10-28T02:37:03.137Z,95.84
2017-10-28T02:38:56.518Z,95.84
2017-10-28T02:39:56.526Z,95.93
2017-10-28T02:41:49.960Z,97.07
2017-10-28T02:42:49.896Z,96.59
2017-10-28T02:44:43.374Z,95.84
2017-10-28T02:45:43.361Z,95.17
2017-10-28T02:47:36.697Z,95.17
2017-10-28T02:48:36.719Z,94.98
2017-10-28T02:50:31.121Z,95.36
2017-10-28T02:51:31.109Z,95.26
2017-10-28T02:53:24.498Z,95.26
2017-10-28T02:54:24.487Z,94.60
2017-10-28T02:56:17.923Z,94.70
2017-10-28T02:57:17.917Z,94.89
2017-10-28T02:59:12.266Z,94.98
2017-10-28T03:00:12.275Z,94.98
2017-10-28T03:02:05.672Z,95.26
2017-10-28T03:03:05.715Z,95.74
2017-10-28T03:04:59.106Z,95.55
2017-10-28T03:05:59.062Z,95.65
2017-10-28T03:07:53.422Z,95.84
2017-10-28T03:08:53.428Z,96.69
2017-10-28T03:10:47.925Z,95.93
2017-10-28T03:11:47.866Z,96.12
2017-10-28T03:13:41.250Z,94.98
2017-10-28T03:14:41.239Z,95.45
2017-10-28T03:16:34.634Z,94.70
2017-10-28T03:17:34.681Z,95.45
2017-10-28T03:19:28.014Z,94.32
2017-10-28T03:20:28.095Z,93.75
2017-10-28T03:22:21.451Z,93.61
2017-10-28T03:23:21.449Z,94.18
2017-10-28T03:25:15.845Z,95.03
2017-10-28T03:26:15.873Z,95.22
2017-10-28T03:28:09.215Z,95.69
2017-10-28T03:29:09.240Z,96.07
2017-10-28T03:31:02.622Z,95.79
2017-10-28T03:32:02.622Z,95.79
2017-10-28T03:33:57.005Z,95.50
2017-10-28T03:34:57.092Z,95.79
2017-10-28T03:36:50.349Z,95.50
2017-10-28T03:37:50.410Z,95.55
2017-10-28T03:39:43.814Z,95.55
2017-10-28T03:40:43.828Z,95.69
2017-10-28T03:42:37.208Z,96.03
2017-10-28T03:43:37.151Z,95.65
2017-10-28T03:45:30.655Z,95.74
2017-10-28T03:46:31.073Z,95.84
2017-10-28T03:48:24.016Z,96.12
2017-10-28T03:49:23.964Z,95.93
2017-10-28T03:51:18.339Z,95.74
2017-10-28T03:52:18.332Z,96.78
2017-10-28T03:54:11.685Z,96.50
2017-10-28T03:55:11.721Z,96.12
2017-10-28T03:57:05.141Z,95.74
2017-10-28T03:58:05.144Z,95.65
2017-10-28T03:59:58.533Z,94.89
2017-10-28T04:00:58.555Z,94.89
2017-10-28T04:02:51.924Z,95.26
2017-10-28T04:03:51.952Z,95.17
2017-10-28T04:05:45.383Z,95.45
2017-10-28T04:06:45.303Z,95.17
2017-10-28T04:08:38.804Z,96.12
2017-10-28T04:09:38.784Z,95.65
2017-10-28T04:11:32.179Z,96.31
2017-10-28T04:12:32.108Z,96.69
2017-10-28T04:14:25.514Z,97.54
2017-10-28T04:15:25.528Z,96.78
2017-10-28T04:17:19.909Z,96.83
2017-10-28T04:18:19.916Z,97.64
2017-10-28T04:20:13.344Z,96.97
2017-10-28T04:21:13.396Z,96.83
2017-10-28T04:23:06.724Z,96.73
2017-10-28T04:24:06.748Z,97.02
2017-10-28T04:26:00.112Z,96.73
2017-10-28T04:27:00.138Z,96.88
2017-10-28T04:28:53.544Z,96.03
2017-10-28T04:29:53.521Z,95.93
2017-10-28T04:31:48.029Z,96.50
2017-10-28T04:32:47.899Z,97.07
2017-10-28T04:34:41.347Z,96.45
2017-10-28T04:35:41.355Z,96.03
2017-10-28T04:37:34.701Z,96.59
2017-10-28T04:38:34.755Z,96.03
2017-10-28T04:40:28.148Z,95.84
2017-10-28T04:41:28.080Z,95.84
2017-10-28T04:43:21.453Z,95.74
2017-10-28T04:44:21.494Z,95.50
2017-10-28T04:46:14.882Z,95.31
2017-10-28T04:47:14.915Z,96.03
2017-10-28T04:49:08.336Z,95.74
2017-10-28T04:50:08.354Z,96.03
2017-10-28T04:52:01.711Z,96.03
2017-10-28T04:53:01.669Z,96.50
2017-10-28T04:54:55.083Z,95.65
2017-10-28T04:55:55.072Z,95.55
2017-10-28T04:57:48.477Z,95.45
2017-10-28T04:58:48.444Z,95.65
2017-10-28T05:00:41.838Z,95.36
2017-10-28T05:01:41.879Z,95.55
2017-10-28T05:03:35.286Z,95.93
2017-10-28T05:04:35.247Z,96.03
2017-10-28T05:06:29.684Z,95.93
2017-10-28T05:07:29.648Z,95.55
2017-10-28T05:09:23.037Z,95.07
2017-10-28T05:10:23.020Z,95.45
2017-10-28T05:12:16.447Z,94.32
2017-10-28T05:13:16.410Z,94.51
2017-10-28T05:15:09.769Z,94.46
2017-10-28T05:16:09.850Z,96.17
2017-10-28T05:18:03.207Z,96.73
2017-10-28T05:19:03.224Z,96.41
2017-10-28T05:20:56.598Z,95.22
2017-10-28T05:21:56.629Z,95.03
2017-10-28T05:23:50.033Z,95.88
2017-10-28T05:24:49.964Z,95.69
2017-10-28T05:26:43.359Z,98.02
2017-10-28T05:27:43.412Z,99.63
2017-10-28T05:29:36.775Z,99.91
2017-10-28T05:30:36.776Z,99.25
2017-10-28T05:32:30.135Z,99.06
2017-10-28T05:33:30.186Z,98.87
2017-10-28T05:35:23.585Z,99.06
2017-10-28T05:36:23.564Z,98.77
2017-10-28T05:38:16.961Z,98.39
2017-10-28T05:39:17.032Z,98.68
2017-10-28T05:41:10.308Z,98.58
2017-10-28T05:42:10.362Z,98.77
2017-10-28T05:44:03.798Z,98.30
2017-10-28T05:45:03.743Z,98.11
2017-10-28T05:46:57.112Z,98.11
2017-10-28T05:47:57.111Z,98.30
2017-10-28T05:49:51.509Z,97.64
2017-10-28T05:50:51.516Z,97.92
2017-10-28T05:52:44.912Z,96.59
2017-10-28T05:53:44.942Z,96.50
2017-10-28T05:55:39.275Z,96.88
2017-10-28T05:56:39.351Z,97.73
2017-10-28T05:58:32.704Z,96.50
2017-10-28T05:59:32.677Z,97.07
2017-10-28T06:01:26.181Z,96.50
2017-10-28T06:02:26.147Z,96.59
2017-10-28T06:04:21.486Z,96.22
2017-10-28T06:05:21.483Z,95.93
2017-10-28T06:07:14.928Z,96.69
2017-10-28T06:08:14.875Z,97.16
2017-10-28T06:10:08.402Z,96.59
2017-10-28T06:11:08.295Z,96.59
2017-10-28T06:13:02.680Z,96.78
2017-10-28T06:14:02.736Z,96.22
2017-10-28T06:15:58.082Z,96.69
2017-10-28T06:16:58.099Z,98.02
2017-10-28T06:18:52.465Z,98.02
2017-10-28T06:19:52.468Z,96.59
2017-10-28T06:21:45.921Z,97.54
2017-10-28T06:22:45.871Z,97.64
2017-10-28T06:24:39.306Z,96.88
2017-10-28T06:25:39.259Z,96.88
2017-10-28T06:27:32.658Z,97.64
2017-10-28T06:28:32.695Z,98.11
2017-10-28T06:30:26.105Z,98.68
2017-10-28T06:31:26.069Z,98.58
2017-10-28T06:33:20.426Z,98.96
2017-10-28T06:34:20.457Z,99.34
2017-10-28T06:36:14.927Z,99.30
2017-10-28T06:37:14.825Z,98.68
2017-10-28T06:39:08.295Z,98.44
2017-10-28T06:40:08.263Z,98.35
2017-10-28T06:42:02.671Z,98.16
2017-10-28T06:43:02.677Z,99.01
2017-10-28T06:44:56.109Z,98.07
2017-10-28T06:45:56.068Z,98.35
2017-10-28T06:47:49.459Z,98.16
2017-10-28T06:48:49.443Z,98.16
2017-10-28T06:50:42.822Z,98.07
2017-10-28T06:51:42.841Z,98.07
2017-10-28T06:53:36.262Z,98.21
2017-10-28T06:54:36.246Z,97.74
2017-10-28T06:56:29.607Z,98.11
2017-10-28T06:57:29.631Z,98.21
2017-10-28T06:59:24.036Z,97.64
2017-10-28T07:00:24.031Z,97.74
2017-10-28T07:02:17.371Z,97.45
2017-10-28T07:03:17.427Z,97.55
2017-10-28T07:05:10.885Z,97.55
2017-10-28T07:06:10.827Z,97.36
2017-10-28T07:08:04.241Z,96.97
2017-10-28T07:09:04.291Z,96.59
2017-10-28T07:10:57.665Z,96.50
2017-10-28T07:11:57.740Z,96.78
2017-10-28T07:13:51.017Z,96.97
2017-10-28T07:14:51.027Z,96.50
2017-10-28T07:16:44.443Z,96.93
2017-10-28T07:17:44.401Z,96.26
2017-10-28T07:19:37.845Z,95.79
2017-10-28T07:20:37.825Z,96.08
2017-10-28T07:22:32.316Z,96.17
2017-10-28T07:23:32.244Z,95.31
2017-10-28T07:25:26.001Z,95.51
2017-10-28T07:26:26.013Z,95.31
2017-10-28T07:28:19.500Z,95.51
2017-10-28T07:29:19.512Z,95.51
2017-10-28T07:31:13.750Z,95.89
2017-10-28T07:32:14.389Z,96.26
2017-10-28T07:34:06.718Z,95.89
2017-10-28T07:35:06.700Z,96.17
2017-10-28T07:37:00.140Z,95.41
2017-10-28T07:38:00.127Z,96.17
2017-10-28T07:39:53.791Z,95.79
2017-10-28T07:40:53.777Z,96.83
2017-10-28T07:42:47.184Z,96.93
2017-10-28T07:43:47.174Z,96.64
2017-10-28T07:45:40.609Z,96.55
2017-10-28T07:46:40.602Z,96.26
2017-10-28T07:48:35.046Z,96.08
2017-10-28T07:49:34.991Z,95.89
2017-10-28T07:51:28.435Z,97.12
2017-10-28T07:52:28.357Z,96.08
2017-10-28T07:54:22.701Z,96.03
2017-10-28T07:55:22.729Z,95.84
2017-10-28T07:57:16.534Z,95.36
2017-10-28T07:58:16.509Z,95.46
2017-10-28T08:00:09.952Z,95.08
2017-10-28T08:01:09.900Z,94.98
2017-10-28T08:03:03.406Z,94.70
2017-10-28T08:04:03.378Z,94.56
2017-10-28T08:05:56.681Z,93.89
2017-10-28T08:06:56.690Z,93.84
2017-10-28T08:08:50.059Z,93.84
2017-10-28T08:09:50.066Z,93.79
2017-10-28T08:11:43.482Z,93.94
2017-10-28T08:12:43.473Z,93.18
2017-10-28T08:14:36.891Z,93.46
2017-10-28T08:15:37.094Z,94.27
2017-10-28T08:17:30.306Z,93.32
2017-10-28T08:18:30.310Z,93.41
2017-10-28T08:20:23.890Z,93.60
2017-10-28T08:21:23.682Z,93.60
2017-10-28T08:23:17.111Z,92.56
2017-10-28T08:24:17.121Z,91.89
2017-10-28T08:26:10.514Z,92.18
2017-10-28T08:27:10.548Z,91.99
2017-10-28T08:29:04.943Z,92.08
2017-10-28T08:30:05.224Z,91.80
2017-10-28T08:31:58.291Z,91.75
2017-10-28T08:32:58.296Z,91.56
2017-10-28T08:34:51.700Z,90.52
2017-10-28T08:35:51.700Z,90.04
2017-10-28T08:37:45.064Z,89.75
2017-10-28T08:38:45.078Z,90.33
2017-10-28T08:40:38.486Z,91.08
2017-10-28T08:41:38.742Z,90.80
2017-10-28T08:43:31.949Z,90.33
2017-10-28T08:44:31.949Z,89.66
2017-10-28T08:46:25.271Z,89.28
2017-10-28T08:47:25.553Z,90.37
2017-10-28T08:49:19.261Z,89.80
2017-10-28T08:50:19.266Z,89.99
2017-10-28T08:52:12.726Z,88.28
2017-10-28T08:53:12.715Z,88.28
2017-10-28T08:55:07.865Z,88.56
2017-10-28T08:56:06.108Z,88.09
2017-10-28T08:57:59.555Z,88.09
2017-10-28T08:58:59.561Z,87.90
2017-10-28T09:00:53.078Z,88.37
2017-10-28T09:01:53.158Z,87.80
2017-10-28T09:03:47.503Z,87.80
2017-10-28T09:04:47.447Z,87.71
2017-10-28T09:06:40.899Z,87.52
2017-10-28T09:07:40.906Z,87.13
2017-10-28T09:09:34.315Z,86.66
2017-10-28T09:10:34.357Z,85.61
2017-10-28T09:12:27.708Z,86.66
2017-10-28T09:13:27.683Z,86.66
2017-10-28T09:15:21.201Z,86.09
2017-10-28T09:16:21.110Z,85.52
2017-10-28T09:18:14.486Z,85.33
2017-10-28T09:19:14.472Z,85.42
2017-10-28T09:21:07.861Z,86.28
2017-10-28T09:22:07.863Z,85.52
2017-10-28T09:24:01.268Z,85.99
2017-10-28T09:25:01.255Z,86.09
2017-10-28T09:26:54.655Z,86.18
2017-10-28T09:27:54.656Z,86.28
2017-10-28T09:29:48.068Z,85.85
2017-10-28T09:30:48.049Z,85.99
2017-10-28T09:32:41.456Z,85.08
2017-10-28T09:33:41.446Z,84.89
2017-10-28T09:35:34.851Z,84.52
2017-10-28T09:36:34.835Z,84.23
2017-10-28T09:38:28.251Z,82.70
2017-10-28T09:39:28.249Z,82.80
2017-10-28T09:41:21.653Z,84.13
2017-10-28T09:42:21.641Z,83.56
2017-10-28T09:44:15.050Z,83.18
2017-10-28T09:45:15.031Z,82.99
2017-10-28T09:47:07.924Z,82.70
2017-10-28T09:48:07.926Z,82.61
2017-10-28T09:50:01.332Z,82.51
2017-10-28T09:51:01.322Z,82.14
2017-10-28T09:52:54.704Z,81.18
2017-10-28T09:53:54.710Z,81.66
2017-10-28T09:55:48.122Z,81.66
2017-10-28T09:56:48.104Z,81.37
2017-10-28T09:58:41.493Z,81.28
2017-10-28T09:59:41.495Z,80.75
2017-10-28T10:01:34.978Z,80.90
2017-10-28T10:02:35.030Z,80.55
2017-10-28T10:04:29.397Z,80.65
2017-10-28T10:05:29.362Z,80.84
2017-10-28T10:07:22.737Z,80.27
2017-10-28T10:08:22.835Z,81.13
2017-10-28T10:10:16.179Z,79.70
2017-10-28T10:11:16.184Z,80.65
2017-10-28T10:13:09.638Z,79.41
2017-10-28T10:14:09.598Z,79.13
2017-10-28T10:16:02.948Z,79.70
2017-10-28T10:17:02.958Z,79.89
2017-10-28T10:18:56.380Z,79.70
2017-10-28T10:19:56.387Z,79.60
2017-10-28T10:21:50.737Z,78.46
2017-10-28T10:22:50.794Z,79.13
2017-10-28T10:24:44.161Z,78.94
2017-10-28T10:25:44.146Z,77.89
2017-10-28T10:27:37.566Z,76.59
2017-10-28T10:28:37.536Z,76.54
2017-10-28T10:30:30.992Z,73.75
2017-10-28T10:31:31.001Z,72.32
2017-10-28T10:33:24.310Z,72.17
2017-10-28T10:34:24.435Z,70.92
2017-10-28T10:36:17.783Z,70.16
2017-10-28T10:37:17.769Z,69.49
2017-10-28T10:39:11.100Z,69.74
2017-10-28T10:40:11.196Z,69.74
2017-10-28T10:42:04.588Z,71.81
2017-10-28T10:43:04.620Z,73.39
2017-10-28T10:44:57.979Z,73.77
2017-10-28T10:45:57.994Z,73.68
2017-10-28T10:47:51.404Z,75.36
2017-10-28T10:48:51.439Z,75.26
2017-10-28T10:50:45.832Z,70.32
2017-10-28T10:51:45.833Z,69.43
2017-10-28T10:53:39.183Z,68.79
2017-10-28T10:54:39.191Z,67.81
2017-10-28T10:56:32.580Z,65.52
2017-10-28T10:57:32.741Z,66.38
2017-10-28T10:59:27.168Z,61.66
2017-10-28T11:00:27.001Z,61.88
2017-10-28T11:02:21.453Z,58.72
2017-10-28T11:03:21.440Z,58.65
2017-10-28T11:05:14.813Z,59.40
2017-10-28T11:06:14.854Z,60.45
2017-10-28T11:08:08.224Z,61.66
2017-10-28T11:09:09.074Z,61.47
2017-10-28T11:11:01.834Z,62.65
2017-10-28T11:12:02.309Z,63.07
2017-10-28T11:13:55.339Z,64.56
2017-10-28T11:14:55.566Z,66.44
2017-10-28T11:16:50.163Z,66.95
2017-10-28T11:17:49.844Z,65.52
2017-10-28T11:19:42.983Z,64.81
2017-10-28T11:20:43.141Z,64.65
2017-10-28T11:22:36.457Z,67.71
2017-10-28T11:23:36.418Z,67.75
2017-10-28T11:25:31.084Z,66.70
2017-10-28T11:26:31.091Z,67.71
2017-10-28T11:28:24.310Z,67.77
2017-10-28T11:29:24.133Z,67.11
2017-10-28T11:31:18.070Z,69.02
2017-10-28T11:32:17.550Z,70.32
2017-10-28T11:34:10.990Z,72.42
2017-10-28T11:35:11.082Z,71.72
2017-10-28T11:37:04.643Z,73.05
2017-10-28T11:38:04.460Z,73.62
2017-10-28T11:39:57.998Z,73.30
2017-10-28T11:40:58.156Z,73.68
2017-10-28T11:42:51.285Z,72.72
2017-10-28T11:43:51.481Z,73.58
2017-10-28T11:45:45.711Z,73.30
2017-10-28T11:46:45.795Z,73.21
2017-10-28T11:48:39.214Z,73.77
2017-10-28T11:49:39.204Z,73.77
2017-10-28T11:51:32.634Z,73.14
2017-10-28T11:52:32.602Z,72.96
2017-10-28T11:54:25.939Z,74.16
2017-10-28T11:55:26.000Z,73.68
2017-10-28T11:57:19.419Z,72.92
2017-10-28T11:58:19.432Z,72.63
2017-10-28T12:00:13.913Z,71.87
2017-10-28T12:01:13.785Z,72.63
2017-10-28T12:03:07.193Z,74.63
2017-10-28T12:04:07.190Z,75.01
2017-10-28T12:06:00.573Z,77.69
2017-10-28T12:07:00.606Z,74.73
2017-10-28T12:08:54.047Z,75.15
2017-10-28T12:09:53.999Z,73.68
2017-10-28T12:11:47.368Z,73.05
2017-10-28T12:12:47.377Z,72.38
2017-10-28T12:14:40.888Z,71.62
2017-10-28T12:15:40.826Z,71.81
2017-10-28T12:17:34.251Z,70.57
2017-10-28T12:18:34.223Z,70.67
2017-10-28T12:20:27.612Z,71.91
2017-10-28T12:21:27.608Z,72.25
2017-10-28T12:23:21.023Z,71.81
2017-10-28T12:24:21.056Z,71.52
2017-10-28T12:26:14.469Z,71.72
2017-10-28T12:27:14.467Z,72.00
2017-10-28T12:29:07.970Z,70.76
2017-10-28T12:30:07.884Z,72.96
2017-10-28T12:32:01.312Z,72.00
2017-10-28T12:33:01.260Z,71.68
2017-10-28T12:34:54.659Z,72.25
2017-10-28T12:35:54.615Z,72.53
2017-10-28T12:37:48.075Z,71.77
2017-10-28T12:38:48.105Z,72.28
2017-10-28T12:40:41.554Z,72.06
2017-10-28T12:41:41.555Z,72.53
2017-10-28T12:43:37.046Z,74.19
2017-10-28T12:44:36.940Z,73.81
2017-10-28T12:46:30.340Z,73.39
2017-10-28T12:47:30.437Z,71.96
2017-10-28T12:49:24.791Z,73.30
2017-10-28T12:50:24.752Z,73.21
2017-10-28T12:52:19.093Z,72.19
2017-10-28T12:53:19.252Z,71.72
2017-10-28T12:55:12.629Z,72.09
2017-10-28T12:56:12.591Z,72.38
2017-10-28T12:58:06.029Z,72.19
2017-10-28T12:59:06.054Z,72.67
2017-10-28T13:00:59.345Z,73.72
2017-10-28T13:01:59.317Z,73.52
2017-10-28T13:03:52.770Z,72.19
2017-10-28T13:04:52.938Z,71.72
2017-10-28T13:06:46.274Z,72.19
2017-10-28T13:07:46.381Z,72.96
2017-10-28T13:09:40.526Z,72.57
2017-10-28T13:10:39.642Z,72.86
2017-10-28T13:12:32.937Z,68.66
2017-10-28T13:13:33.014Z,68.57
2017-10-28T13:15:27.373Z,68.09
2017-10-28T13:16:27.404Z,68.95
2017-10-28T13:18:20.852Z,67.61
2017-10-28T13:19:20.793Z,67.61
2017-10-28T13:21:14.240Z,67.42
2017-10-28T13:22:14.264Z,68.66
2017-10-28T13:24:07.636Z,69.14
2017-10-28T13:25:07.648Z,69.43
2017-10-28T13:27:00.958Z,68.09
2017-10-28T13:28:01.018Z,68.28
2017-10-28T13:29:54.473Z,70.00
2017-10-28T13:30:54.438Z,70.67
2017-10-28T13:32:48.853Z,69.58
2017-10-28T13:33:48.795Z,70.53
2017-10-28T13:35:42.254Z,70.47
2017-10-28T13:36:42.213Z,69.04
2017-10-28T13:38:35.594Z,68.91
2017-10-28T13:39:35.636Z,69.01
2017-10-28T13:41:29.076Z,69.71
2017-10-28T13:42:29.047Z,69.58
2017-10-28T13:44:23.422Z,70.15
2017-10-28T13:45:23.480Z,69.96
2017-10-28T13:47:16.877Z,69.48
2017-10-28T13:48:16.854Z,69.77
2017-10-28T13:50:10.274Z,70.44
2017-10-28T13:51:10.392Z,71.01
2017-10-28T13:53:03.692Z,71.96
2017-10-28T13:54:03.808Z,70.72
2017-10-28T13:55:57.112Z,70.69
2017-10-28T13:56:57.204Z,71.45
2017-10-28T13:58:50.482Z,70.69
2017-10-28T13:59:50.479Z,72.12
2017-10-28T14:01:43.938Z,72.02
2017-10-28T14:02:43.911Z,72.02
2017-10-28T14:04:38.302Z,70.12
2017-10-28T14:05:38.335Z,70.69
2017-10-28T14:07:31.816Z,69.93
2017-10-28T14:08:31.872Z,69.93
2017-10-28T14:10:25.195Z,69.54
2017-10-28T14:11:25.218Z,70.40
2017-10-28T14:13:18.643Z,69.64
2017-10-28T14:14:18.682Z,69.35
2017-10-28T14:16:12.942Z,70.78
2017-10-28T14:17:12.974Z,71.64
2017-10-28T14:19:06.430Z,70.69
2017-10-28T14:20:06.342Z,70.78
2017-10-28T14:21:59.798Z,71.64
2017-10-28T14:22:59.743Z,71.64
2017-10-28T14:24:54.216Z,71.45
2017-10-28T14:25:54.205Z,71.64
2017-10-28T14:27:48.174Z,71.83
2017-10-28T14:28:48.126Z,70.50
2017-10-28T14:30:41.096Z,70.40
2017-10-28T14:31:50.663Z,71.83
2017-10-28T14:33:37.092Z,72.12
2017-10-28T14:34:34.154Z,71.64
2017-10-28T14:36:27.685Z,70.21
2017-10-28T14:37:27.590Z,71.45
2017-10-28T14:39:20.993Z,71.13
2017-10-28T14:40:20.947Z,70.75
2017-10-28T14:42:15.709Z,70.94
2017-10-28T14:43:15.313Z,71.98
2017-10-28T14:45:10.816Z,70.84
2017-10-28T14:46:10.832Z,70.65
2017-10-28T14:48:05.213Z,69.79
2017-10-28T14:49:05.218Z,70.18
2017-10-28T14:50:58.575Z,69.51
2017-10-28T14:51:58.594Z,70.37
2017-10-28T14:53:53.026Z,69.60
2017-10-28T14:54:52.975Z,70.27
2017-10-28T14:56:48.010Z,70.37
2017-10-28T14:57:47.395Z,70.75
2017-10-28T14:59:41.909Z,70.84
2017-10-28T15:00:41.825Z,70.65
2017-10-28T15:02:37.419Z,70.65
2017-10-28T15:03:36.136Z,70.94
2017-10-28T15:05:29.628Z,71.80
2017-10-28T15:06:29.618Z,71.32
2017-10-28T15:08:22.983Z,71.51
2017-10-28T15:09:23.014Z,71.22
2017-10-28T15:11:16.416Z,71.98
2017-10-28T15:12:16.438Z,71.89
2017-10-28T15:14:09.855Z,72.08
2017-10-28T15:15:09.836Z,71.98
2017-10-28T15:17:03.235Z,71.70
2017-10-28T15:18:03.268Z,72.08
2017-10-28T15:19:57.716Z,71.89
2017-10-28T15:20:57.683Z,72.75
2017-10-28T15:22:51.091Z,71.98
2017-10-28T15:23:51.089Z,72.27
2017-10-28T15:25:45.466Z,72.08
2017-10-28T15:26:45.510Z,72.37
2017-10-28T15:28:38.896Z,73.51
2017-10-28T15:29:38.864Z,73.22
2017-10-28T15:31:32.315Z,73.22
2017-10-28T15:32:32.226Z,73.13
2017-10-28T15:34:25.755Z,72.85
2017-10-28T15:35:25.631Z,72.94
2017-10-28T15:37:19.079Z,73.51
2017-10-28T15:38:19.037Z,74.08
2017-10-28T15:40:12.533Z,74.56
2017-10-28T15:41:12.432Z,74.84
2017-10-28T15:43:05.831Z,74.56
2017-10-28T15:44:05.868Z,74.56
2017-10-28T15:45:59.316Z,74.14
2017-10-28T15:46:59.242Z,73.89
2017-10-28T15:48:52.718Z,73.57
2017-10-28T15:49:52.642Z,73.85
2017-10-28T15:51:47.174Z,73.66
2017-10-28T15:52:47.032Z,73.47
2017-10-28T15:54:40.469Z,73.10
2017-10-28T15:55:40.419Z,73.95
2017-10-28T15:57:33.912Z,74.14
2017-10-28T15:58:33.910Z,74.04
2017-10-28T16:00:28.261Z,73.57
2017-10-28T16:01:28.275Z,73.57
2017-10-28T16:03:22.670Z,74.27
2017-10-28T16:04:22.664Z,74.04
2017-10-28T16:06:16.058Z,73.95
2017-10-28T16:07:16.146Z,73.38
2017-10-28T16:09:09.440Z,72.52
2017-10-28T16:10:09.428Z,73.13
2017-10-28T16:12:02.809Z,73.03
2017-10-28T16:13:02.830Z,73.10
2017-10-28T16:14:56.226Z,72.52
2017-10-28T16:15:56.235Z,72.90
2017-10-28T16:17:49.559Z,73.19
2017-10-28T16:18:49.614Z,72.71
2017-10-28T16:20:42.993Z,72.71
2017-10-28T16:21:43.067Z,72.52
2017-10-28T16:23:36.418Z,72.62
2017-10-28T16:24:36.450Z,73.00
2017-10-28T16:26:29.839Z,71.98
2017-10-28T16:27:29.870Z,72.33
2017-10-28T16:29:23.215Z,73.47
2017-10-28T16:30:23.240Z,73.10
2017-10-28T16:32:16.649Z,72.52
2017-10-28T16:33:16.674Z,73.66
2017-10-28T16:35:10.023Z,72.90
2017-10-28T16:36:10.032Z,73.47
2017-10-28T16:38:03.516Z,73.10
2017-10-28T16:39:03.411Z,72.62
2017-10-28T16:40:56.809Z,71.86
2017-10-28T16:41:56.802Z,72.62
2017-10-28T16:43:50.201Z,72.62
2017-10-28T16:44:50.189Z,72.33
2017-10-28T16:46:43.560Z,73.28
2017-10-28T16:47:43.571Z,72.90
2017-10-28T16:49:36.963Z,73.10
2017-10-28T16:50:36.953Z,73.10
2017-10-28T16:52:32.482Z,72.62
2017-10-28T16:53:32.476Z,73.38
2017-10-28T16:55:25.916Z,73.00
2017-10-28T16:56:25.939Z,72.90
2017-10-28T16:58:19.333Z,72.81
2017-10-28T16:59:19.346Z,72.81
2017-10-28T17:01:12.829Z,72.42
2017-10-28T17:02:12.768Z,72.81
2017-10-28T17:04:06.191Z,72.42
2017-10-28T17:05:06.155Z,72.42
2017-10-28T17:06:59.490Z,71.86
2017-10-28T17:07:59.569Z,73.10
2017-10-28T17:09:52.957Z,73.66
2017-10-28T17:10:52.926Z,72.81
2017-10-28T17:12:47.266Z,73.95
2017-10-28T17:13:47.353Z,74.24
2017-10-28T17:15:40.792Z,73.76
2017-10-28T17:16:40.804Z,73.38
2017-10-28T17:18:34.186Z,73.57
2017-10-28T17:19:34.170Z,73.85
2017-10-28T17:21:27.654Z,73.10
2017-10-28T17:22:27.564Z,73.47
2017-10-28T17:24:20.985Z,73.76
2017-10-28T17:25:20.944Z,73.57
2017-10-28T17:27:14.491Z,73.00
2017-10-28T17:28:14.388Z,73.28
2017-10-28T17:30:07.759Z,73.19
2017-10-28T17:31:07.755Z,73.10
2017-10-28T17:33:01.167Z,73.10
2017-10-28T17:34:01.146Z,73.76
2017-10-28T17:35:54.512Z,73.66
2017-10-28T17:36:54.558Z,73.66
2017-10-28T17:38:48.968Z,74.62
2017-10-28T17:39:48.923Z,74.52
2017-10-28T17:41:42.305Z,74.80
2017-10-28T17:42:42.342Z,74.52
2017-10-28T17:44:35.731Z,75.28
2017-10-28T17:45:35.701Z,74.90
2017-10-28T17:47:29.105Z,75.47
2017-10-28T17:48:29.202Z,75.38
2017-10-28T17:50:22.535Z,75.57
2017-10-28T17:51:22.571Z,76.71
2017-10-28T17:53:15.935Z,76.71
2017-10-28T17:54:15.936Z,77.09
2017-10-28T17:56:09.337Z,76.42
2017-10-28T17:57:09.380Z,76.52
2017-10-28T17:59:02.777Z,76.71
2017-10-28T18:00:02.705Z,77.56
2017-10-28T18:01:56.106Z,77.76
2017-10-28T18:02:56.186Z,77.95
2017-10-28T18:04:58.176Z,77.28
2017-10-28T18:05:49.528Z,77.47
2017-10-28T18:07:43.293Z,77.76
2017-10-28T18:08:42.837Z,78.71
2017-10-28T18:10:36.329Z,78.90
2017-10-28T18:11:36.276Z,78.04
2017-10-28T18:13:29.718Z,78.52
2017-10-28T18:14:29.694Z,78.80
2017-10-28T18:16:24.109Z,78.14
2017-10-28T18:17:24.193Z,78.33
2017-10-28T18:19:17.564Z,78.52
2017-10-28T18:20:17.559Z,78.23
2017-10-28T18:22:10.951Z,78.33
2017-10-28T18:23:10.971Z,77.56
2017-10-28T18:25:05.349Z,78.33
2017-10-28T18:26:05.352Z,78.33
2017-10-28T18:27:58.774Z,78.80
2017-10-28T18:28:58.744Z,78.99
2017-10-28T18:30:52.095Z,79.28
2017-10-28T18:31:52.114Z,78.99
2017-10-28T18:33:45.480Z,79.09
2017-10-28T18:34:45.479Z,78.99
2017-10-28T18:36:39.001Z,79.09
2017-10-28T18:37:38.897Z,78.90